createdAt,value
2018-12-01T00:00:53.894Z,886.01
2018-12-01T00:01:53.890Z,886.03
2018-12-01T00:02:53.864Z,886.05
2018-12-01T00:03:53.853Z,886.10
2018-12-01T00:04:53.834Z,886.09
2018-12-01T00:05:53.816Z,886.05
2018-12-01T00:06:53.799Z,886.07
2018-12-01T00:07:53.785Z,886.04
2018-12-01T00:08:53.767Z,886.04
2018-12-01T00:09:53.749Z,886.08
2018-12-01T00:10:53.733Z,886.05
2018-12-01T00:11:53.715Z,886.01
2018-12-01T00:12:53.703Z,885.99
2018-12-01T00:13:53.696Z,886.00
2018-12-01T00:14:53.671Z,886.01
2018-12-01T00:15:53.657Z,885.99
2018-12-01T00:16:53.677Z,886.00
2018-12-01T00:17:53.623Z,886.03
2018-12-01T00:18:53.608Z,886.04
2018-12-01T00:19:53.594Z,886.01
2018-12-01T00:20:53.574Z,886.02
2018-12-01T00:21:53.553Z,886.02
2018-12-01T00:22:53.541Z,886.02
2018-12-01T00:23:53.525Z,885.98
2018-12-01T00:24:53.507Z,886.02
2018-12-01T00:25:53.486Z,885.99
2018-12-01T00:26:53.479Z,885.99
2018-12-01T00:27:53.462Z,886.01
2018-12-01T00:28:53.451Z,886.00
2018-12-01T00:29:53.428Z,886.04
2018-12-01T00:30:53.414Z,886.02
2018-12-01T00:31:53.401Z,886.04
2018-12-01T00:32:53.381Z,886.09
2018-12-01T00:33:53.363Z,886.08
2018-12-01T00:34:53.349Z,886.13
2018-12-01T00:35:53.333Z,886.13
2018-12-01T00:36:53.317Z,886.13
2018-12-01T00:37:53.309Z,886.14
2018-12-01T00:38:53.288Z,886.13
2018-12-01T00:39:53.270Z,886.16
2018-12-01T00:40:53.252Z,886.15
2018-12-01T00:41:53.242Z,886.15
2018-12-01T00:42:53.222Z,886.13
2018-12-01T00:43:53.207Z,886.12
2018-12-01T00:44:53.186Z,886.12
2018-12-01T00:45:53.172Z,886.10
2018-12-01T00:46:53.155Z,886.08
2018-12-01T00:47:53.142Z,886.06
2018-12-01T00:48:53.128Z,886.07
2018-12-01T00:49:53.107Z,886.12
2018-12-01T00:50:53.095Z,886.11
2018-12-01T00:51:53.076Z,886.08
2018-12-01T00:52:53.065Z,886.09
2018-12-01T00:53:53.042Z,886.11
2018-12-01T00:54:53.030Z,886.10
2018-12-01T00:55:53.012Z,886.08
2018-12-01T00:56:52.990Z,886.11
2018-12-01T00:57:52.973Z,886.13
2018-12-01T00:58:52.963Z,886.17
2018-12-01T00:59:52.945Z,886.11
2018-12-01T01:00:52.933Z,886.14
2018-12-01T01:01:52.916Z,886.17
2018-12-01T01:02:52.902Z,886.16
2018-12-01T01:03:52.885Z,886.16
2018-12-01T01:04:52.864Z,886.18
2018-12-01T01:05:52.852Z,886.18
2018-12-01T01:06:52.835Z,886.21
2018-12-01T01:07:52.821Z,886.22
2018-12-01T01:08:52.807Z,886.24
2018-12-01T01:09:52.791Z,886.22
2018-12-01T01:10:52.773Z,886.24
2018-12-01T01:11:52.749Z,886.22
2018-12-01T01:12:52.737Z,886.25
2018-12-01T01:13:52.721Z,886.24
2018-12-01T01:14:52.704Z,886.23
2018-12-01T01:15:52.683Z,886.25
2018-12-01T01:16:52.673Z,886.25
2018-12-01T01:17:52.662Z,886.24
2018-12-01T01:18:52.644Z,886.25
2018-12-01T01:19:52.618Z,886.24
2018-12-01T01:20:52.610Z,886.28
2018-12-01T01:21:52.592Z,886.29
2018-12-01T01:22:52.577Z,886.23
2018-12-01T01:23:52.560Z,886.25
2018-12-01T01:24:52.550Z,886.26
2018-12-01T01:25:52.531Z,886.29
2018-12-01T01:26:52.513Z,886.32
2018-12-01T01:27:52.500Z,886.28
2018-12-01T01:28:52.479Z,886.29
2018-12-01T01:29:52.475Z,886.31
2018-12-01T01:30:52.449Z,886.28
2018-12-01T01:31:52.435Z,886.27
2018-12-01T01:32:52.417Z,886.27
2018-12-01T01:33:52.399Z,886.29
2018-12-01T01:34:52.392Z,886.27
2018-12-01T01:35:52.375Z,886.25
2018-12-01T01:36:52.360Z,886.27
2018-12-01T01:37:52.345Z,886.25
2018-12-01T01:38:52.318Z,886.26
2018-12-01T01:39:52.306Z,886.23
2018-12-01T01:40:52.287Z,886.23
2018-12-01T01:41:52.273Z,886.22
2018-12-01T01:42:52.253Z,886.22
2018-12-01T01:43:52.241Z,886.20
2018-12-01T01:44:52.226Z,886.25
2018-12-01T01:45:52.209Z,886.20
2018-12-01T01:46:52.191Z,886.18
2018-12-01T01:47:52.177Z,886.21
2018-12-01T01:48:52.159Z,886.19
2018-12-01T01:49:52.146Z,886.20
2018-12-01T01:50:52.128Z,886.18
2018-12-01T01:51:52.107Z,886.20
2018-12-01T01:52:52.097Z,886.21
2018-12-01T01:53:52.080Z,886.18
2018-12-01T01:54:52.062Z,886.23
2018-12-01T01:55:52.044Z,886.24
2018-12-01T01:56:52.043Z,886.26
2018-12-01T01:57:52.014Z,886.26
2018-12-01T01:58:51.999Z,886.22
2018-12-01T01:59:51.986Z,886.23
2018-12-01T02:00:51.966Z,886.23
2018-12-01T02:01:51.956Z,886.22
2018-12-01T02:02:51.937Z,886.18
2018-12-01T02:03:51.921Z,886.23
2018-12-01T02:04:51.909Z,886.23
2018-12-01T02:05:51.884Z,886.23
2018-12-01T02:06:51.866Z,886.23
2018-12-01T02:07:51.856Z,886.22
2018-12-01T02:08:51.842Z,886.22
2018-12-01T02:09:51.822Z,886.24
2018-12-01T02:10:51.810Z,886.25
2018-12-01T02:11:51.794Z,886.29
2018-12-01T02:12:51.776Z,886.33
2018-12-01T02:13:51.759Z,886.30
2018-12-01T02:14:51.743Z,886.36
2018-12-01T02:15:51.729Z,886.37
2018-12-01T02:16:51.718Z,886.37
2018-12-01T02:17:51.701Z,886.34
2018-12-01T02:18:51.677Z,886.35
2018-12-01T02:19:51.665Z,886.33
2018-12-01T02:20:51.645Z,886.33
2018-12-01T02:21:51.633Z,886.33
2018-12-01T02:22:51.610Z,886.34
2018-12-01T02:23:51.600Z,886.29
2018-12-01T02:24:51.583Z,886.29
2018-12-01T02:25:51.568Z,886.29
2018-12-01T02:26:51.550Z,886.27
2018-12-01T02:27:51.531Z,886.27
2018-12-01T02:28:51.520Z,886.26
2018-12-01T02:29:51.501Z,886.28
2018-12-01T02:30:51.490Z,886.27
2018-12-01T02:31:51.472Z,886.30
2018-12-01T02:32:51.455Z,886.31
2018-12-01T02:33:51.434Z,886.31
2018-12-01T02:34:51.420Z,886.33
2018-12-01T02:35:51.448Z,886.30
2018-12-01T02:36:51.384Z,886.30
2018-12-01T02:37:51.377Z,886.30
2018-12-01T02:38:51.351Z,886.29
2018-12-01T02:39:51.346Z,886.28
2018-12-01T02:40:51.329Z,886.30
2018-12-01T02:41:51.303Z,886.29
2018-12-01T02:42:51.294Z,886.29
2018-12-01T02:43:51.273Z,886.31
2018-12-01T02:44:51.261Z,886.30
2018-12-01T02:45:51.238Z,886.30
2018-12-01T02:46:51.231Z,886.28
2018-12-01T02:47:51.213Z,886.27
2018-12-01T02:48:51.200Z,886.25
2018-12-01T02:49:51.178Z,886.23
2018-12-01T02:50:51.166Z,886.22
2018-12-01T02:51:51.142Z,886.25
2018-12-01T02:52:51.130Z,886.23
2018-12-01T02:53:51.112Z,886.26
2018-12-01T02:54:51.101Z,886.21
2018-12-01T02:55:51.081Z,886.22
2018-12-01T02:56:51.065Z,886.23
2018-12-01T02:57:51.048Z,886.27
2018-12-01T02:58:51.033Z,886.24
2018-12-01T02:59:51.015Z,886.28
2018-12-01T03:00:51.003Z,886.29
2018-12-01T03:01:50.984Z,886.28
2018-12-01T03:02:50.967Z,886.27
2018-12-01T03:03:50.948Z,886.28
2018-12-01T03:04:50.940Z,886.28
2018-12-01T03:05:50.916Z,886.29
2018-12-01T03:06:50.903Z,886.27
2018-12-01T03:07:50.885Z,886.29
2018-12-01T03:08:50.867Z,886.29
2018-12-01T03:09:50.850Z,886.28
2018-12-01T03:10:50.837Z,886.23
2018-12-01T03:11:50.824Z,886.22
2018-12-01T03:12:50.805Z,886.25
2018-12-01T03:13:50.794Z,886.24
2018-12-01T03:14:50.774Z,886.22
2018-12-01T03:15:50.754Z,886.21
2018-12-01T03:16:50.738Z,886.19
2018-12-01T03:17:50.727Z,886.19
2018-12-01T03:18:50.709Z,886.19
2018-12-01T03:19:50.697Z,886.13
2018-12-01T03:20:50.678Z,886.14
2018-12-01T03:21:50.661Z,886.12
2018-12-01T03:22:50.660Z,886.15
2018-12-01T03:23:50.627Z,886.15
2018-12-01T03:24:50.612Z,886.17
2018-12-01T03:25:50.596Z,886.20
2018-12-01T03:26:50.580Z,886.17
2018-12-01T03:27:50.564Z,886.21
2018-12-01T03:28:50.546Z,886.25
2018-12-01T03:29:50.526Z,886.23
2018-12-01T03:30:50.513Z,886.26
2018-12-01T03:31:50.497Z,886.27
2018-12-01T03:32:50.482Z,886.29
2018-12-01T03:33:50.465Z,886.29
2018-12-01T03:34:50.445Z,886.30
2018-12-01T03:35:50.433Z,886.30
2018-12-01T03:36:50.419Z,886.31
2018-12-01T03:37:50.399Z,886.29
2018-12-01T03:38:50.387Z,886.27
2018-12-01T03:39:50.368Z,886.31
2018-12-01T03:40:50.358Z,886.35
2018-12-01T03:41:50.338Z,886.34
2018-12-01T03:42:50.320Z,886.32
2018-12-01T03:43:50.308Z,886.35
2018-12-01T03:44:50.286Z,886.32
2018-12-01T03:45:50.277Z,886.33
2018-12-01T03:46:50.254Z,886.35
2018-12-01T03:47:50.238Z,886.38
2018-12-01T03:48:50.226Z,886.41
2018-12-01T03:49:50.219Z,886.40
2018-12-01T03:50:50.191Z,886.41
2018-12-01T03:51:50.177Z,886.42
2018-12-01T03:52:50.158Z,886.41
2018-12-01T03:53:50.144Z,886.42
2018-12-01T03:54:50.128Z,886.41
2018-12-01T03:55:50.112Z,886.43
2018-12-01T03:56:50.096Z,886.46
2018-12-01T03:57:50.081Z,886.45
2018-12-01T03:58:50.060Z,886.45
2018-12-01T03:59:50.045Z,886.47
2018-12-01T04:00:50.028Z,886.50
2018-12-01T04:01:50.015Z,886.49
2018-12-01T04:02:50.001Z,886.49
2018-12-01T04:03:49.979Z,886.52
2018-12-01T04:04:49.966Z,886.51
2018-12-01T04:05:49.952Z,886.51
2018-12-01T04:06:49.936Z,886.48
2018-12-01T04:07:49.920Z,886.55
2018-12-01T04:08:49.902Z,886.54
2018-12-01T04:09:49.887Z,886.52
2018-12-01T04:10:49.859Z,886.57
2018-12-01T04:11:49.848Z,886.57
2018-12-01T04:12:49.834Z,886.55
2018-12-01T04:13:49.827Z,886.55
2018-12-01T04:14:49.809Z,886.58
2018-12-01T04:15:49.794Z,886.60
2018-12-01T04:16:49.773Z,886.58
2018-12-01T04:17:49.755Z,886.58
2018-12-01T04:18:49.735Z,886.60
2018-12-01T04:19:49.719Z,886.63
2018-12-01T04:20:49.718Z,886.62
2018-12-01T04:21:49.696Z,886.61
2018-12-01T04:22:49.682Z,886.65
2018-12-01T04:23:49.658Z,886.62
2018-12-01T04:24:49.636Z,886.64
2018-12-01T04:25:49.626Z,886.61
2018-12-01T04:26:49.613Z,886.62
2018-12-01T04:27:49.598Z,886.62
2018-12-01T04:28:49.583Z,886.61
2018-12-01T04:29:49.562Z,886.60
2018-12-01T04:30:49.543Z,886.60
2018-12-01T04:31:49.533Z,886.61
2018-12-01T04:32:49.507Z,886.60
2018-12-01T04:33:49.494Z,886.62
2018-12-01T04:34:49.479Z,886.64
2018-12-01T04:35:49.466Z,886.62
2018-12-01T04:36:49.447Z,886.65
2018-12-01T04:37:49.436Z,886.65
2018-12-01T04:38:49.419Z,886.67
2018-12-01T04:39:49.398Z,886.66
2018-12-01T04:40:49.382Z,886.66
2018-12-01T04:41:49.363Z,886.67
2018-12-01T04:42:49.347Z,886.66
2018-12-01T04:43:49.331Z,886.63
2018-12-01T04:44:49.321Z,886.65
2018-12-01T04:45:49.309Z,886.63
2018-12-01T04:46:49.284Z,886.63
2018-12-01T04:47:49.282Z,886.62
2018-12-01T04:48:49.248Z,886.63
2018-12-01T04:49:49.258Z,886.68
2018-12-01T04:50:49.230Z,886.62
2018-12-01T04:51:49.201Z,886.64
2018-12-01T04:52:49.191Z,886.62
2018-12-01T04:53:49.169Z,886.62
2018-12-01T04:54:49.151Z,886.60
2018-12-01T04:55:49.139Z,886.61
2018-12-01T04:56:49.134Z,886.58
2018-12-01T04:57:49.109Z,886.61
2018-12-01T04:58:49.091Z,886.61
2018-12-01T04:59:49.075Z,886.61
2018-12-01T05:00:49.053Z,886.61
2018-12-01T05:01:49.043Z,886.60
2018-12-01T05:02:49.026Z,886.60
2018-12-01T05:03:49.012Z,886.62
2018-12-01T05:04:48.990Z,886.60
2018-12-01T05:05:48.980Z,886.64
2018-12-01T05:06:48.966Z,886.67
2018-12-01T05:07:48.946Z,886.67
2018-12-01T05:08:49.436Z,886.66
2018-12-01T05:09:48.910Z,886.73
2018-12-01T05:10:48.895Z,886.71
2018-12-01T05:11:48.877Z,886.72
2018-12-01T05:12:48.865Z,886.79
2018-12-01T05:13:48.844Z,886.78
2018-12-01T05:14:48.833Z,886.78
2018-12-01T05:15:48.818Z,886.81
2018-12-01T05:16:48.798Z,886.83
2018-12-01T05:17:48.787Z,886.82
2018-12-01T05:18:48.759Z,886.80
2018-12-01T05:19:48.749Z,886.79
2018-12-01T05:20:48.753Z,886.80
2018-12-01T05:21:48.711Z,886.78
2018-12-01T05:22:48.705Z,886.79
2018-12-01T05:23:48.687Z,886.82
2018-12-01T05:24:48.669Z,886.81
2018-12-01T05:25:48.654Z,886.80
2018-12-01T05:26:48.636Z,886.84
2018-12-01T05:27:48.620Z,886.81
2018-12-01T05:28:48.606Z,886.81
2018-12-01T05:29:48.590Z,886.79
2018-12-01T05:30:48.576Z,886.77
2018-12-01T05:31:48.554Z,886.79
2018-12-01T05:32:48.540Z,886.80
2018-12-01T05:33:48.519Z,886.75
2018-12-01T05:34:48.505Z,886.76
2018-12-01T05:35:48.485Z,886.71
2018-12-01T05:36:48.473Z,886.70
2018-12-01T05:37:48.464Z,886.71
2018-12-01T05:38:48.443Z,886.72
2018-12-01T05:39:48.423Z,886.72
2018-12-01T05:40:48.413Z,886.72
2018-12-01T05:41:48.390Z,886.72
2018-12-01T05:42:48.384Z,886.72
2018-12-01T05:43:48.360Z,886.74
2018-12-01T05:44:48.349Z,886.78
2018-12-01T05:45:48.332Z,886.75
2018-12-01T05:46:48.314Z,886.77
2018-12-01T05:47:48.300Z,886.75
2018-12-01T05:48:48.290Z,886.79
2018-12-01T05:49:48.267Z,886.76
2018-12-01T05:50:48.251Z,886.79
2018-12-01T05:51:48.236Z,886.77
2018-12-01T05:52:48.211Z,886.78
2018-12-01T05:53:48.197Z,886.79
2018-12-01T05:54:48.183Z,886.81
2018-12-01T05:55:48.166Z,886.80
2018-12-01T05:56:48.158Z,886.80
2018-12-01T05:57:48.134Z,886.77
2018-12-01T05:58:48.123Z,886.82
2018-12-01T05:59:48.103Z,886.81
2018-12-01T06:00:48.088Z,886.83
2018-12-01T06:01:48.068Z,886.83
2018-12-01T06:02:48.054Z,886.79
2018-12-01T06:03:48.037Z,886.82
2018-12-01T06:04:48.020Z,886.79
2018-12-01T06:05:48.010Z,886.81
2018-12-01T06:06:47.997Z,886.80
2018-12-01T06:07:47.973Z,886.80
2018-12-01T06:08:47.959Z,886.78
2018-12-01T06:09:47.947Z,886.80
2018-12-01T06:10:47.928Z,886.80
2018-12-01T06:11:47.903Z,886.81
2018-12-01T06:12:47.894Z,886.80
2018-12-01T06:13:47.876Z,886.78
2018-12-01T06:14:47.864Z,886.76
2018-12-01T06:15:47.840Z,886.76
2018-12-01T06:16:47.828Z,886.75
2018-12-01T06:17:47.811Z,886.75
2018-12-01T06:18:47.791Z,886.73
2018-12-01T06:19:47.798Z,886.73
2018-12-01T06:20:47.769Z,886.71
2018-12-01T06:21:47.758Z,886.71
2018-12-01T06:22:47.734Z,886.76
2018-12-01T06:23:47.718Z,886.69
2018-12-01T06:24:47.694Z,886.73
2018-12-01T06:25:47.686Z,886.69
2018-12-01T06:26:47.667Z,886.69
2018-12-01T06:27:47.653Z,886.72
2018-12-01T06:28:47.638Z,886.72
2018-12-01T06:29:47.615Z,886.70
2018-12-01T06:30:47.607Z,886.72
2018-12-01T06:31:47.586Z,886.75
2018-12-01T06:32:47.571Z,886.78
2018-12-01T06:33:47.554Z,886.76
2018-12-01T06:34:47.539Z,886.80
2018-12-01T06:35:47.524Z,886.80
2018-12-01T06:36:47.502Z,886.85
2018-12-01T06:37:47.489Z,886.85
2018-12-01T06:38:47.471Z,886.86
2018-12-01T06:39:47.459Z,886.93
2018-12-01T06:40:47.438Z,886.91
2018-12-01T06:41:47.449Z,886.98
2018-12-01T06:42:47.408Z,886.96
2018-12-01T06:43:47.394Z,886.97
2018-12-01T06:44:47.376Z,887.01
2018-12-01T06:45:47.360Z,887.04
2018-12-01T06:46:47.344Z,887.09
2018-12-01T06:47:47.327Z,887.06
2018-12-01T06:48:47.311Z,887.09
2018-12-01T06:49:47.297Z,887.11
2018-12-01T06:50:47.285Z,887.12
2018-12-01T06:51:47.262Z,887.09
2018-12-01T06:52:47.249Z,887.11
2018-12-01T06:53:47.232Z,887.14
2018-12-01T06:54:47.214Z,887.13
2018-12-01T06:55:47.197Z,887.18
2018-12-01T06:56:47.182Z,887.17
2018-12-01T06:57:47.162Z,887.16
2018-12-01T06:58:47.152Z,887.19
2018-12-01T06:59:47.131Z,887.24
2018-12-01T07:00:47.117Z,887.27
2018-12-01T07:01:47.108Z,887.27
2018-12-01T07:02:47.085Z,887.26
2018-12-01T07:03:47.069Z,887.24
2018-12-01T07:04:47.051Z,887.28
2018-12-01T07:05:47.037Z,887.26
2018-12-01T07:06:47.025Z,887.27
2018-12-01T07:07:46.996Z,887.28
2018-12-01T07:08:46.982Z,887.31
2018-12-01T07:09:46.964Z,887.28
2018-12-01T07:10:46.956Z,887.28
2018-12-01T07:11:46.936Z,887.30
2018-12-01T07:12:46.922Z,887.31
2018-12-01T07:13:46.906Z,887.31
2018-12-01T07:14:46.890Z,887.31
2018-12-01T07:15:46.992Z,887.32
2018-12-01T07:16:46.847Z,887.33
2018-12-01T07:17:46.840Z,887.34
2018-12-01T07:18:46.825Z,887.34
2018-12-01T07:19:46.818Z,887.34
2018-12-01T07:20:46.794Z,887.37
2018-12-01T07:21:46.777Z,887.39
2018-12-01T07:22:46.755Z,887.45
2018-12-01T07:23:46.739Z,887.41
2018-12-01T07:24:46.727Z,887.46
2018-12-01T07:25:46.709Z,887.45
2018-12-01T07:26:46.694Z,887.44
2018-12-01T07:27:46.679Z,887.45
2018-12-01T07:28:46.665Z,887.51
2018-12-01T07:29:46.645Z,887.47
2018-12-01T07:30:46.626Z,887.48
2018-12-01T07:31:46.612Z,887.49
2018-12-01T07:32:46.598Z,887.48
2018-12-01T07:33:46.581Z,887.51
2018-12-01T07:34:46.569Z,887.53
2018-12-01T07:35:46.539Z,887.52
2018-12-01T07:36:46.530Z,887.50
2018-12-01T07:37:46.511Z,887.55
2018-12-01T07:38:46.505Z,887.55
2018-12-01T07:39:46.481Z,887.53
2018-12-01T07:40:53.213Z,887.56
2018-12-01T07:41:46.447Z,887.55
2018-12-01T07:42:46.433Z,887.56
2018-12-01T07:43:46.413Z,887.58
2018-12-01T07:44:47.030Z,887.54
2018-12-01T07:45:46.383Z,887.56
2018-12-01T07:46:46.370Z,887.61
2018-12-01T07:47:46.354Z,887.62
2018-12-01T07:48:46.334Z,887.61
2018-12-01T07:49:46.320Z,887.61
2018-12-01T07:50:46.304Z,887.61
2018-12-01T07:51:46.286Z,887.61
2018-12-01T07:52:46.278Z,887.59
2018-12-01T07:53:46.256Z,887.61
2018-12-01T07:54:46.238Z,887.57
2018-12-01T07:55:46.218Z,887.58
2018-12-01T07:56:46.208Z,887.61
2018-12-01T07:57:46.195Z,887.61
2018-12-01T07:58:46.171Z,887.60
2018-12-01T07:59:46.164Z,887.61
2018-12-01T08:00:46.143Z,887.61
2018-12-01T08:01:46.127Z,887.60
2018-12-01T08:02:46.114Z,887.58
2018-12-01T08:03:46.097Z,887.57
2018-12-01T08:04:46.087Z,887.58
2018-12-01T08:05:46.060Z,887.57
2018-12-01T08:06:46.044Z,887.59
2018-12-01T08:07:46.027Z,887.60
2018-12-01T08:08:46.016Z,887.59
2018-12-01T08:09:45.996Z,887.54
2018-12-01T08:10:45.986Z,887.56
2018-12-01T08:11:45.967Z,887.56
2018-12-01T08:12:45.952Z,887.59
2018-12-01T08:13:45.935Z,887.60
2018-12-01T08:14:45.917Z,887.57
2018-12-01T08:15:45.901Z,887.57
2018-12-01T08:16:45.885Z,887.58
2018-12-01T08:17:45.889Z,887.59
2018-12-01T08:18:45.856Z,887.62
2018-12-01T08:19:45.842Z,887.63
2018-12-01T08:20:45.826Z,887.62
2018-12-01T08:21:45.807Z,887.64
2018-12-01T08:22:45.782Z,887.66
2018-12-01T08:23:45.771Z,887.66
2018-12-01T08:24:45.757Z,887.64
2018-12-01T08:25:45.739Z,887.67
2018-12-01T08:26:45.721Z,887.67
2018-12-01T08:27:45.709Z,887.68
2018-12-01T08:28:45.691Z,887.69
2018-12-01T08:29:45.676Z,887.70
2018-12-01T08:30:45.659Z,887.67
2018-12-01T08:31:45.647Z,887.66
2018-12-01T08:32:45.629Z,887.69
2018-12-01T08:33:45.609Z,887.69
2018-12-01T08:34:45.599Z,887.70
2018-12-01T08:35:45.580Z,887.68
2018-12-01T08:36:45.569Z,887.66
2018-12-01T08:37:45.548Z,887.66
2018-12-01T08:38:45.534Z,887.65
2018-12-01T08:39:45.513Z,887.67
2018-12-01T08:40:45.500Z,887.67
2018-12-01T08:41:45.485Z,887.66
2018-12-01T08:42:45.468Z,887.62
2018-12-01T08:43:45.447Z,887.66
2018-12-01T08:44:45.435Z,887.63
2018-12-01T08:45:45.419Z,887.62
2018-12-01T08:46:45.405Z,887.62
2018-12-01T08:47:45.383Z,887.58
2018-12-01T08:48:45.373Z,887.57
2018-12-01T08:49:45.356Z,887.56
2018-12-01T08:50:46.320Z,887.58
2018-12-01T08:51:45.321Z,887.55
2018-12-01T08:52:45.302Z,887.59
2018-12-01T08:53:45.295Z,887.62
2018-12-01T08:54:45.277Z,887.66
2018-12-01T08:55:45.265Z,887.69
2018-12-01T08:56:45.245Z,887.75
2018-12-01T08:57:45.225Z,887.75
2018-12-01T08:58:45.211Z,887.77
2018-12-01T08:59:45.198Z,887.78
2018-12-01T09:00:45.183Z,887.78
2018-12-01T09:01:45.166Z,887.75
2018-12-01T09:02:45.148Z,887.78
2018-12-01T09:03:45.131Z,887.73
2018-12-01T09:04:45.118Z,887.73
2018-12-01T09:05:45.102Z,887.71
2018-12-01T09:06:45.087Z,887.72
2018-12-01T09:07:45.070Z,887.73
2018-12-01T09:08:45.052Z,887.75
2018-12-01T09:09:45.040Z,887.74
2018-12-01T09:10:45.015Z,887.77
2018-12-01T09:11:45.007Z,887.79
2018-12-01T09:12:44.997Z,887.79
2018-12-01T09:13:44.976Z,887.80
2018-12-01T09:14:44.959Z,887.83
2018-12-01T09:15:44.943Z,887.83
2018-12-01T09:16:44.944Z,887.85
2018-12-01T09:17:44.908Z,887.86
2018-12-01T09:18:44.900Z,887.86
2018-12-01T09:19:44.880Z,887.85
2018-12-01T09:20:44.864Z,887.83
2018-12-01T09:21:44.847Z,887.82
2018-12-01T09:22:44.830Z,887.76
2018-12-01T09:23:44.811Z,887.78
2018-12-01T09:24:44.794Z,887.77
2018-12-01T09:25:44.783Z,887.76
2018-12-01T09:26:44.769Z,887.76
2018-12-01T09:27:44.755Z,887.75
2018-12-01T09:28:44.739Z,887.80
2018-12-01T09:29:44.713Z,887.77
2018-12-01T09:30:44.705Z,887.73
2018-12-01T09:31:44.685Z,887.70
2018-12-01T09:32:44.674Z,887.73
2018-12-01T09:33:44.658Z,887.73
2018-12-01T09:34:44.641Z,887.70
2018-12-01T09:35:44.623Z,887.70
2018-12-01T09:36:44.609Z,887.68
2018-12-01T09:37:44.587Z,887.67
2018-12-01T09:38:44.569Z,887.66
2018-12-01T09:39:44.558Z,887.63
2018-12-01T09:40:44.541Z,887.60
2018-12-01T09:41:44.533Z,887.61
2018-12-01T09:42:44.510Z,887.58
2018-12-01T09:43:44.499Z,887.61
2018-12-01T09:44:44.481Z,887.60
2018-12-01T09:45:44.470Z,887.57
2018-12-01T09:46:44.457Z,887.58
2018-12-01T09:47:44.473Z,887.56
2018-12-01T09:48:44.416Z,887.56
2018-12-01T09:49:44.402Z,887.52
2018-12-01T09:50:44.391Z,887.50
2018-12-01T09:51:44.365Z,887.50
2018-12-01T09:52:44.354Z,887.45
2018-12-01T09:53:44.340Z,887.49
2018-12-01T09:54:44.327Z,887.47
2018-12-01T09:55:44.308Z,887.50
2018-12-01T09:56:44.291Z,887.50
2018-12-01T09:57:44.274Z,887.51
2018-12-01T09:58:44.259Z,887.51
2018-12-01T09:59:44.245Z,887.51
2018-12-01T10:00:44.231Z,887.50
2018-12-01T10:01:44.213Z,887.49
2018-12-01T10:02:44.194Z,887.46
2018-12-01T10:03:44.183Z,887.47
2018-12-01T10:04:44.167Z,887.51
2018-12-01T10:05:44.155Z,887.42
2018-12-01T10:06:44.139Z,887.41
2018-12-01T10:07:44.121Z,887.44
2018-12-01T10:08:44.111Z,887.45
2018-12-01T10:09:44.085Z,887.41
2018-12-01T10:10:44.075Z,887.43
2018-12-01T10:11:44.058Z,887.42
2018-12-01T10:12:44.038Z,887.39
2018-12-01T10:13:44.029Z,887.40
2018-12-01T10:14:44.006Z,887.37
2018-12-01T10:15:43.997Z,887.29
2018-12-01T10:16:43.980Z,887.30
2018-12-01T10:17:43.967Z,887.30
2018-12-01T10:18:43.948Z,887.24
2018-12-01T10:19:43.934Z,887.22
2018-12-01T10:20:43.919Z,887.14
2018-12-01T10:21:43.905Z,887.13
2018-12-01T10:22:43.883Z,887.13
2018-12-01T10:23:43.877Z,887.14
2018-12-01T10:24:43.863Z,887.07
2018-12-01T10:25:43.845Z,887.10
2018-12-01T10:26:43.825Z,887.04
2018-12-01T10:27:43.815Z,887.05
2018-12-01T10:28:43.795Z,887.02
2018-12-01T10:29:43.785Z,886.99
2018-12-01T10:30:43.765Z,886.94
2018-12-01T10:31:43.748Z,886.97
2018-12-01T10:32:43.739Z,886.98
2018-12-01T10:33:43.725Z,886.94
2018-12-01T10:34:43.720Z,886.90
2018-12-01T10:35:43.693Z,886.90
2018-12-01T10:36:43.683Z,886.92
2018-12-01T10:37:43.665Z,886.90
2018-12-01T10:38:43.642Z,886.90
2018-12-01T10:39:43.636Z,886.82
2018-12-01T10:40:43.624Z,886.82
2018-12-01T10:41:43.606Z,886.84
2018-12-01T10:42:43.592Z,886.79
2018-12-01T10:43:43.585Z,886.74
2018-12-01T10:44:43.556Z,886.76
2018-12-01T10:45:43.554Z,886.79
2018-12-01T10:46:43.539Z,886.78
2018-12-01T10:47:43.521Z,886.75
2018-12-01T10:48:43.509Z,886.72
2018-12-01T10:49:43.495Z,886.73
2018-12-01T10:50:43.477Z,886.64
2018-12-01T10:51:43.463Z,886.69
2018-12-01T10:52:43.443Z,886.64
2018-12-01T10:53:43.436Z,886.66
2018-12-01T10:54:43.418Z,886.67
2018-12-01T10:55:43.404Z,886.70
2018-12-01T10:56:43.414Z,886.64
2018-12-01T10:57:43.380Z,886.66
2018-12-01T10:58:43.360Z,886.65
2018-12-01T10:59:43.350Z,886.68
2018-12-01T11:00:43.335Z,886.66
2018-12-01T11:01:43.324Z,886.67
2018-12-01T11:02:43.305Z,886.67
2018-12-01T11:03:43.305Z,886.64
2018-12-01T11:04:43.273Z,886.65
2018-12-01T11:05:43.271Z,886.67
2018-12-01T11:06:43.251Z,886.68
2018-12-01T11:07:43.235Z,886.67
2018-12-01T11:08:43.224Z,886.65
2018-12-01T11:09:43.206Z,886.63
2018-12-01T11:10:43.192Z,886.62
2018-12-01T11:11:43.181Z,886.60
2018-12-01T11:12:43.165Z,886.57
2018-12-01T11:13:43.158Z,886.51
2018-12-01T11:14:43.142Z,886.50
2018-12-01T11:15:43.117Z,886.47
2018-12-01T11:16:43.104Z,886.49
2018-12-01T11:17:43.088Z,886.48
2018-12-01T11:18:43.076Z,886.49
2018-12-01T11:19:43.094Z,886.39
2018-12-01T11:20:43.047Z,886.41
2018-12-01T11:21:43.032Z,886.38
2018-12-01T11:22:43.015Z,886.40
2018-12-01T11:23:43.004Z,886.41
2018-12-01T11:24:42.984Z,886.36
2018-12-01T11:25:42.975Z,886.38
2018-12-01T11:26:42.957Z,886.34
2018-12-01T11:27:42.951Z,886.32
2018-12-01T11:28:42.930Z,886.34
2018-12-01T11:29:42.911Z,886.33
2018-12-01T11:30:42.904Z,886.35
2018-12-01T11:31:42.886Z,886.34
2018-12-01T11:32:42.872Z,886.31
2018-12-01T11:33:42.857Z,886.31
2018-12-01T11:34:42.846Z,886.24
2018-12-01T11:35:42.834Z,886.31
2018-12-01T11:36:42.817Z,886.29
2018-12-01T11:37:42.812Z,886.24
2018-12-01T11:38:42.787Z,886.23
2018-12-01T11:39:42.777Z,886.23
2018-12-01T11:40:42.762Z,886.26
2018-12-01T11:41:42.750Z,886.27
2018-12-01T11:42:42.737Z,886.31
2018-12-01T11:43:42.725Z,886.30
2018-12-01T11:44:42.704Z,886.27
2018-12-01T11:45:42.693Z,886.32
2018-12-01T11:46:42.679Z,886.34
2018-12-01T11:47:42.666Z,886.33
2018-12-01T11:48:42.650Z,886.33
2018-12-01T11:49:42.635Z,886.34
2018-12-01T11:50:42.618Z,886.37
2018-12-01T11:51:42.599Z,886.35
2018-12-01T11:52:42.594Z,886.34
2018-12-01T11:53:42.574Z,886.39
2018-12-01T11:54:42.566Z,886.36
2018-12-01T11:55:42.548Z,886.39
2018-12-01T11:56:42.531Z,886.43
2018-12-01T11:57:42.521Z,886.40
2018-12-01T11:58:42.505Z,886.43
2018-12-01T11:59:42.489Z,886.46
2018-12-01T12:00:42.477Z,886.44
2018-12-01T12:01:42.455Z,886.41
2018-12-01T12:02:42.449Z,886.42
2018-12-01T12:03:42.433Z,886.42
2018-12-01T12:04:42.421Z,886.43
2018-12-01T12:05:42.400Z,886.44
2018-12-01T12:06:42.382Z,886.46
2018-12-01T12:07:42.374Z,886.43
2018-12-01T12:08:42.357Z,886.42
2018-12-01T12:09:42.391Z,886.44
2018-12-01T12:10:42.328Z,886.44
2018-12-01T12:11:42.314Z,886.45
2018-12-01T12:12:42.300Z,886.47
2018-12-01T12:13:42.285Z,886.47
2018-12-01T12:14:42.271Z,886.48
2018-12-01T12:15:42.259Z,886.48
2018-12-01T12:16:42.243Z,886.48
2018-12-01T12:17:42.229Z,886.48
2018-12-01T12:18:42.213Z,886.46
2018-12-01T12:19:42.195Z,886.48
2018-12-01T12:20:42.184Z,886.46
2018-12-01T12:21:42.170Z,886.46
2018-12-01T12:22:42.156Z,886.45
2018-12-01T12:23:42.140Z,886.46
2018-12-01T12:24:42.126Z,886.45
2018-12-01T12:25:42.110Z,886.48
2018-12-01T12:26:42.098Z,886.51
2018-12-01T12:27:42.080Z,886.52
2018-12-01T12:28:42.068Z,886.57